sensor_id;sensor_type;location;lat;lon;timestamp;temperature;humidity
22035;DHT22;11181;51.002;4.356;2022-10-10T00:01:08;14.60;99.90
22035;DHT22;11181;51.002;4.356;2022-10-10T00:03:35;14.60;99.90
22035;DHT22;11181;51.002;4.356;2022-10-10T00:06:04;14.60;99.90
22035;DHT22;11181;51.002;4.356;2022-10-10T00:08:31;14.40;99.90
22035;DHT22;11181;51.002;4.356;2022-10-10T00:10:58;14.40;99.90
22035;DHT22;11181;51.002;4.356;2022-10-10T00:13:25;14.40;99.90
22035;DHT22;11181;51.002;4.356;2022-10-10T00:15:51;14.30;99.90
22035;DHT22;11181;51.002;4.356;2022-10-10T00:18:18;14.30;99.90
22035;DHT22;11181;51.002;4.356;2022-10-10T00:20:45;14.20;99.90
22035;DHT22;11181;51.002;4.356;2022-10-10T00:23:13;14.10;99.90
22035;DHT22;11181;51.002;4.356;2022-10-10T00:25:40;14.00;99.90
22035;DHT22;11181;51.002;4.356;2022-10-10T00:28:07;14.00;99.90
22035;DHT22;11181;51.002;4.356;2022-10-10T00:30:34;14.00;99.90
22035;DHT22;11181;51.002;4.356;2022-10-10T00:33:01;13.90;99.90
22035;DHT22;11181;51.002;4.356;2022-10-10T00:35:28;13.80;99.90
22035;DHT22;11181;51.002;4.356;2022-10-10T00:37:55;13.80;99.90
22035;DHT22;11181;51.002;4.356;2022-10-10T00:40:24;13.80;99.90
22035;DHT22;11181;51.002;4.356;2022-10-10T00:42:51;13.80;99.90
22035;DHT22;11181;51.002;4.356;2022-10-10T00:45:28;13.80;99.90
22035;DHT22;11181;51.002;4.356;2022-10-10T00:48:00;13.70;99.90
22035;DHT22;11181;51.002;4.356;2022-10-10T00:50:29;13.70;99.90
22035;DHT22;11181;51.002;4.356;2022-10-10T00:52:57;13.70;99.90
22035;DHT22;11181;51.002;4.356;2022-10-10T00:55:26;13.70;99.90
22035;DHT22;11181;51.002;4.356;2022-10-10T00:57:53;13.70;99.90
22035;DHT22;11181;51.002;4.356;2022-10-10T01:00:20;13.70;99.90
22035;DHT22;11181;51.002;4.356;2022-10-10T01:02:47;13.70;99.90
22035;DHT22;11181;51.002;4.356;2022-10-10T01:05:13;13.70;99.90
22035;DHT22;11181;51.002;4.356;2022-10-10T01:07:41;13.70;99.90
22035;DHT22;11181;51.002;4.356;2022-10-10T01:10:13;13.70;99.90
22035;DHT22;11181;51.002;4.356;2022-10-10T01:13:01;13.60;99.90
22035;DHT22;11181;51.002;4.356;2022-10-10T01:15:40;13.60;99.90
22035;DHT22;11181;51.002;4.356;2022-10-10T01:18:15;13.60;99.90
22035;DHT22;11181;51.002;4.356;2022-10-10T01:20:57;13.50;99.90
22035;DHT22;11181;51.002;4.356;2022-10-10T01:23:42;13.40;99.90
22035;DHT22;11181;51.002;4.356;2022-10-10T01:26:58;13.40;99.90
22035;DHT22;11181;51.002;4.356;2022-10-10T01:29:29;13.30;99.90
22035;DHT22;11181;51.002;4.356;2022-10-10T01:32:02;13.30;99.90
22035;DHT22;11181;51.002;4.356;2022-10-10T01:34:35;13.30;99.90
22035;DHT22;11181;51.002;4.356;2022-10-10T01:37:12;13.20;99.90
22035;DHT22;11181;51.002;4.356;2022-10-10T01:39:48;13.20;99.90
22035;DHT22;11181;51.002;4.356;2022-10-10T01:42:21;13.30;99.90
22035;DHT22;11181;51.002;4.356;2022-10-10T01:44:50;13.30;99.90
22035;DHT22;11181;51.002;4.356;2022-10-10T01:47:19;13.30;99.90
22035;DHT22;11181;51.002;4.356;2022-10-10T01:49:49;13.30;99.90
22035;DHT22;11181;51.002;4.356;2022-10-10T01:52:26;13.30;99.90
22035;DHT22;11181;51.002;4.356;2022-10-10T01:55:05;13.30;99.90
22035;DHT22;11181;51.002;4.356;2022-10-10T01:57:43;13.30;99.90
22035;DHT22;11181;51.002;4.356;2022-10-10T02:00:15;13.20;99.90
22035;DHT22;11181;51.002;4.356;2022-10-10T02:02:48;13.10;99.90
22035;DHT22;11181;51.002;4.356;2022-10-10T02:05:21;13.10;99.90
22035;DHT22;11181;51.002;4.356;2022-10-10T02:07:54;13.10;99.90
22035;DHT22;11181;51.002;4.356;2022-10-10T02:10:26;13.10;99.90
22035;DHT22;11181;51.002;4.356;2022-10-10T02:12:56;13.10;99.90
22035;DHT22;11181;51.002;4.356;2022-10-10T02:15:29;13.10;99.90
22035;DHT22;11181;51.002;4.356;2022-10-10T02:17:59;13.00;99.90
22035;DHT22;11181;51.002;4.356;2022-10-10T02:20:28;13.00;99.90
22035;DHT22;11181;51.002;4.356;2022-10-10T02:22:56;13.00;99.90
22035;DHT22;11181;51.002;4.356;2022-10-10T02:25:26;13.00;99.90
22035;DHT22;11181;51.002;4.356;2022-10-10T02:28:02;13.00;99.90
22035;DHT22;11181;51.002;4.356;2022-10-10T02:30:34;13.00;99.90
22035;DHT22;11181;51.002;4.356;2022-10-10T02:33:03;13.00;99.90
22035;DHT22;11181;51.002;4.356;2022-10-10T02:35:33;13.00;99.90
22035;DHT22;11181;51.002;4.356;2022-10-10T02:38:03;13.00;99.90
22035;DHT22;11181;51.002;4.356;2022-10-10T02:40:32;12.90;99.90
22035;DHT22;11181;51.002;4.356;2022-10-10T02:43:01;12.90;99.90
22035;DHT22;11181;51.002;4.356;2022-10-10T02:45:29;12.90;99.90
22035;DHT22;11181;51.002;4.356;2022-10-10T02:47:59;12.80;99.90
22035;DHT22;11181;51.002;4.356;2022-10-10T02:50:27;12.90;99.90
22035;DHT22;11181;51.002;4.356;2022-10-10T02:52:55;12.90;99.90
22035;DHT22;11181;51.002;4.356;2022-10-10T02:55:22;12.90;99.90
22035;DHT22;11181;51.002;4.356;2022-10-10T02:57:49;12.90;99.90
22035;DHT22;11181;51.002;4.356;2022-10-10T03:00:16;12.90;99.90
22035;DHT22;11181;51.002;4.356;2022-10-10T03:02:43;12.90;99.90
22035;DHT22;11181;51.002;4.356;2022-10-10T03:05:12;12.90;99.90
22035;DHT22;11181;51.002;4.356;2022-10-10T03:07:39;12.90;99.90
22035;DHT22;11181;51.002;4.356;2022-10-10T03:10:07;12.80;99.90
22035;DHT22;11181;51.002;4.356;2022-10-10T03:12:34;12.90;99.90
22035;DHT22;11181;51.002;4.356;2022-10-10T03:15:01;12.90;99.90
22035;DHT22;11181;51.002;4.356;2022-10-10T03:17:27;12.90;99.90
22035;DHT22;11181;51.002;4.356;2022-10-10T03:19:54;12.90;99.90
22035;DHT22;11181;51.002;4.356;2022-10-10T03:22:22;12.80;99.90
22035;DHT22;11181;51.002;4.356;2022-10-10T03:24:49;12.90;99.90
22035;DHT22;11181;51.002;4.356;2022-10-10T03:27:16;12.90;99.90
22035;DHT22;11181;51.002;4.356;2022-10-10T03:29:43;12.90;99.90
22035;DHT22;11181;51.002;4.356;2022-10-10T03:32:10;12.90;99.90
22035;DHT22;11181;51.002;4.356;2022-10-10T03:34:37;12.90;99.90
22035;DHT22;11181;51.002;4.356;2022-10-10T03:37:04;12.90;99.90
22035;DHT22;11181;51.002;4.356;2022-10-10T03:39:32;13.00;99.90
22035;DHT22;11181;51.002;4.356;2022-10-10T03:41:59;13.00;99.90
22035;DHT22;11181;51.002;4.356;2022-10-10T03:44:25;13.10;99.90
22035;DHT22;11181;51.002;4.356;2022-10-10T03:46:52;13.10;99.90
22035;DHT22;11181;51.002;4.356;2022-10-10T03:49:19;13.20;99.90
22035;DHT22;11181;51.002;4.356;2022-10-10T03:51:46;13.20;99.90
22035;DHT22;11181;51.002;4.356;2022-10-10T03:54:13;13.20;99.90
22035;DHT22;11181;51.002;4.356;2022-10-10T03:56:41;13.10;99.90
22035;DHT22;11181;51.002;4.356;2022-10-10T03:59:08;13.20;99.90
22035;DHT22;11181;51.002;4.356;2022-10-10T04:01:35;13.20;99.90
22035;DHT22;11181;51.002;4.356;2022-10-10T04:04:02;13.30;99.90
22035;DHT22;11181;51.002;4.356;2022-10-10T04:06:29;13.10;99.90
22035;DHT22;11181;51.002;4.356;2022-10-10T04:08:56;13.10;99.90
22035;DHT22;11181;51.002;4.356;2022-10-10T04:11:23;13.00;99.90
22035;DHT22;11181;51.002;4.356;2022-10-10T04:13:51;13.10;99.90
22035;DHT22;11181;51.002;4.356;2022-10-10T04:16:18;13.10;99.90
22035;DHT22;11181;51.002;4.356;2022-10-10T04:18:45;13.10;99.90
22035;DHT22;11181;51.002;4.356;2022-10-10T04:21:12;13.10;99.90
22035;DHT22;11181;51.002;4.356;2022-10-10T04:23:39;13.00;99.90
22035;DHT22;11181;51.002;4.356;2022-10-10T04:26:06;13.10;99.90
22035;DHT22;11181;51.002;4.356;2022-10-10T04:28:33;13.00;99.90
22035;DHT22;11181;51.002;4.356;2022-10-10T04:31:01;13.10;99.90
22035;DHT22;11181;51.002;4.356;2022-10-10T04:33:28;13.10;99.90
22035;DHT22;11181;51.002;4.356;2022-10-10T04:35:55;13.10;99.90
22035;DHT22;11181;51.002;4.356;2022-10-10T04:38:22;13.10;99.90
22035;DHT22;11181;51.002;4.356;2022-10-10T04:40:49;13.10;99.90
22035;DHT22;11181;51.002;4.356;2022-10-10T04:43:17;13.00;99.90
22035;DHT22;11181;51.002;4.356;2022-10-10T04:45:44;13.10;99.90
22035;DHT22;11181;51.002;4.356;2022-10-10T04:48:12;13.10;99.90
22035;DHT22;11181;51.002;4.356;2022-10-10T04:50:40;13.20;99.90
22035;DHT22;11181;51.002;4.356;2022-10-10T04:53:08;13.20;99.90
22035;DHT22;11181;51.002;4.356;2022-10-10T04:55:36;13.00;99.90
22035;DHT22;11181;51.002;4.356;2022-10-10T04:58:02;12.90;99.90
22035;DHT22;11181;51.002;4.356;2022-10-10T05:00:29;12.90;99.90
22035;DHT22;11181;51.002;4.356;2022-10-10T05:02:56;12.90;99.90
22035;DHT22;11181;51.002;4.356;2022-10-10T05:05:24;12.90;99.90
22035;DHT22;11181;51.002;4.356;2022-10-10T05:07:51;12.80;99.90
22035;DHT22;11181;51.002;4.356;2022-10-10T05:10:18;12.60;99.90
22035;DHT22;11181;51.002;4.356;2022-10-10T05:12:45;12.60;99.90
22035;DHT22;11181;51.002;4.356;2022-10-10T05:15:12;12.70;99.90
22035;DHT22;11181;51.002;4.356;2022-10-10T05:17:39;12.70;99.90
22035;DHT22;11181;51.002;4.356;2022-10-10T05:20:06;12.80;99.90
22035;DHT22;11181;51.002;4.356;2022-10-10T05:22:34;12.90;99.90
22035;DHT22;11181;51.002;4.356;2022-10-10T05:25:02;12.90;99.90
22035;DHT22;11181;51.002;4.356;2022-10-10T05:27:29;12.90;99.90
22035;DHT22;11181;51.002;4.356;2022-10-10T05:29:55;13.00;99.90
22035;DHT22;11181;51.002;4.356;2022-10-10T05:32:22;13.10;99.90
22035;DHT22;11181;51.002;4.356;2022-10-10T05:34:49;13.20;99.90
22035;DHT22;11181;51.002;4.356;2022-10-10T05:37:16;13.20;99.90
22035;DHT22;11181;51.002;4.356;2022-10-10T05:39:44;13.20;99.90
22035;DHT22;11181;51.002;4.356;2022-10-10T05:42:12;13.20;99.90
22035;DHT22;11181;51.002;4.356;2022-10-10T05:44:39;13.20;99.90
22035;DHT22;11181;51.002;4.356;2022-10-10T05:47:06;13.20;99.90
22035;DHT22;11181;51.002;4.356;2022-10-10T05:49:33;13.30;99.90
22035;DHT22;11181;51.002;4.356;2022-10-10T05:52:00;13.40;99.90
22035;DHT22;11181;51.002;4.356;2022-10-10T05:54:27;13.40;99.90
22035;DHT22;11181;51.002;4.356;2022-10-10T05:56:55;13.50;99.90
22035;DHT22;11181;51.002;4.356;2022-10-10T05:59:22;13.50;99.90
22035;DHT22;11181;51.002;4.356;2022-10-10T06:01:49;13.60;99.90
22035;DHT22;11181;51.002;4.356;2022-10-10T06:04:16;13.60;99.90
22035;DHT22;11181;51.002;4.356;2022-10-10T06:06:43;13.60;99.90
22035;DHT22;11181;51.002;4.356;2022-10-10T06:09:10;13.60;99.90
22035;DHT22;11181;51.002;4.356;2022-10-10T06:11:37;13.70;99.90
22035;DHT22;11181;51.002;4.356;2022-10-10T06:14:05;13.60;99.90
22035;DHT22;11181;51.002;4.356;2022-10-10T06:16:32;13.60;99.90
22035;DHT22;11181;51.002;4.356;2022-10-10T06:18:59;13.60;99.90
22035;DHT22;11181;51.002;4.356;2022-10-10T06:21:26;13.60;99.90
22035;DHT22;11181;51.002;4.356;2022-10-10T06:23:53;13.50;99.90
22035;DHT22;11181;51.002;4.356;2022-10-10T06:26:20;13.20;99.90
22035;DHT22;11181;51.002;4.356;2022-10-10T06:28:47;13.20;99.90
22035;DHT22;11181;51.002;4.356;2022-10-10T06:31:17;13.20;99.90
22035;DHT22;11181;51.002;4.356;2022-10-10T06:33:44;13.20;99.90
22035;DHT22;11181;51.002;4.356;2022-10-10T06:36:13;13.30;99.90
22035;DHT22;11181;51.002;4.356;2022-10-10T06:38:42;13.40;99.90
22035;DHT22;11181;51.002;4.356;2022-10-10T06:41:09;13.50;99.90
22035;DHT22;11181;51.002;4.356;2022-10-10T06:43:36;13.50;99.90
22035;DHT22;11181;51.002;4.356;2022-10-10T06:46:04;13.50;99.90
22035;DHT22;11181;51.002;4.356;2022-10-10T06:48:33;13.50;99.90
22035;DHT22;11181;51.002;4.356;2022-10-10T06:51:01;13.50;99.90
22035;DHT22;11181;51.002;4.356;2022-10-10T06:53:29;13.50;99.90
22035;DHT22;11181;51.002;4.356;2022-10-10T06:55:57;13.60;99.90
22035;DHT22;11181;51.002;4.356;2022-10-10T06:58:25;13.90;99.90
22035;DHT22;11181;51.002;4.356;2022-10-10T07:00:54;14.10;99.90
22035;DHT22;11181;51.002;4.356;2022-10-10T07:03:22;14.30;99.90
22035;DHT22;11181;51.002;4.356;2022-10-10T07:05:51;14.60;99.90
22035;DHT22;11181;51.002;4.356;2022-10-10T07:08:19;14.80;99.90
22035;DHT22;11181;51.002;4.356;2022-10-10T07:10:46;15.00;99.90
22035;DHT22;11181;51.002;4.356;2022-10-10T07:13:13;15.20;99.90
22035;DHT22;11181;51.002;4.356;2022-10-10T07:15:41;15.40;99.90
22035;DHT22;11181;51.002;4.356;2022-10-10T07:18:08;15.50;99.90
22035;DHT22;11181;51.002;4.356;2022-10-10T07:20:36;15.60;99.90
22035;DHT22;11181;51.002;4.356;2022-10-10T07:23:04;15.70;99.90
22035;DHT22;11181;51.002;4.356;2022-10-10T07:25:31;15.60;99.90
22035;DHT22;11181;51.002;4.356;2022-10-10T07:27:58;15.70;99.90
22035;DHT22;11181;51.002;4.356;2022-10-10T07:30:25;15.90;99.90
22035;DHT22;11181;51.002;4.356;2022-10-10T07:32:53;16.10;99.90
22035;DHT22;11181;51.002;4.356;2022-10-10T07:35:20;16.20;99.90
22035;DHT22;11181;51.002;4.356;2022-10-10T07:37:47;16.20;99.90
22035;DHT22;11181;51.002;4.356;2022-10-10T07:40:16;16.20;99.90
22035;DHT22;11181;51.002;4.356;2022-10-10T07:42:43;16.30;99.90
22035;DHT22;11181;51.002;4.356;2022-10-10T07:45:10;16.40;99.90
22035;DHT22;11181;51.002;4.356;2022-10-10T07:47:37;16.60;99.90
22035;DHT22;11181;51.002;4.356;2022-10-10T07:50:05;16.80;99.90
22035;DHT22;11181;51.002;4.356;2022-10-10T07:52:33;17.10;99.90
22035;DHT22;11181;51.002;4.356;2022-10-10T07:55:00;17.40;99.90
22035;DHT22;11181;51.002;4.356;2022-10-10T07:57:29;17.60;99.90
22035;DHT22;11181;51.002;4.356;2022-10-10T07:59:59;17.90;99.90
22035;DHT22;11181;51.002;4.356;2022-10-10T08:02:27;18.10;99.90
22035;DHT22;11181;51.002;4.356;2022-10-10T08:04:54;18.30;99.90
22035;DHT22;11181;51.002;4.356;2022-10-10T08:07:21;18.60;99.90
22035;DHT22;11181;51.002;4.356;2022-10-10T08:09:47;18.80;99.90
22035;DHT22;11181;51.002;4.356;2022-10-10T08:12:14;19.00;99.90
22035;DHT22;11181;51.002;4.356;2022-10-10T08:14:43;19.00;99.90
22035;DHT22;11181;51.002;4.356;2022-10-10T08:17:10;19.10;99.90
22035;DHT22;11181;51.002;4.356;2022-10-10T08:19:37;19.30;99.90
22035;DHT22;11181;51.002;4.356;2022-10-10T08:22:04;19.40;99.90
22035;DHT22;11181;51.002;4.356;2022-10-10T08:24:31;19.60;99.90
22035;DHT22;11181;51.002;4.356;2022-10-10T08:26:58;19.80;99.90
22035;DHT22;11181;51.002;4.356;2022-10-10T08:29:25;19.90;99.90
22035;DHT22;11181;51.002;4.356;2022-10-10T08:31:53;20.20;99.90
22035;DHT22;11181;51.002;4.356;2022-10-10T08:34:20;20.20;99.90
22035;DHT22;11181;51.002;4.356;2022-10-10T08:36:47;20.40;99.90
22035;DHT22;11181;51.002;4.356;2022-10-10T08:39:15;20.50;99.90
22035;DHT22;11181;51.002;4.356;2022-10-10T08:41:48;20.60;99.90
22035;DHT22;11181;51.002;4.356;2022-10-10T08:44:20;20.60;99.90
22035;DHT22;11181;51.002;4.356;2022-10-10T08:46:52;20.50;99.90
22035;DHT22;11181;51.002;4.356;2022-10-10T08:49:25;20.40;99.90
22035;DHT22;11181;51.002;4.356;2022-10-10T08:52:11;20.10;99.90
22035;DHT22;11181;51.002;4.356;2022-10-10T08:54:40;20.00;99.90
22035;DHT22;11181;51.002;4.356;2022-10-10T08:57:12;20.00;99.90
22035;DHT22;11181;51.002;4.356;2022-10-10T08:59:42;19.80;99.90
22035;DHT22;11181;51.002;4.356;2022-10-10T09:02:26;19.60;99.90
22035;DHT22;11181;51.002;4.356;2022-10-10T09:04:55;19.50;99.90
22035;DHT22;11181;51.002;4.356;2022-10-10T09:07:29;19.50;99.90
22035;DHT22;11181;51.002;4.356;2022-10-10T09:10:09;19.50;99.90
22035;DHT22;11181;51.002;4.356;2022-10-10T09:12:47;19.30;99.90
22035;DHT22;11181;51.002;4.356;2022-10-10T09:15:23;19.30;99.90
22035;DHT22;11181;51.002;4.356;2022-10-10T09:17:59;19.50;99.90
22035;DHT22;11181;51.002;4.356;2022-10-10T09:20:36;19.70;99.90
22035;DHT22;11181;51.002;4.356;2022-10-10T09:23:14;19.70;99.90
22035;DHT22;11181;51.002;4.356;2022-10-10T09:25:45;19.70;99.90
22035;DHT22;11181;51.002;4.356;2022-10-10T09:28:17;19.90;99.90
22035;DHT22;11181;51.002;4.356;2022-10-10T09:30:48;20.10;99.90
22035;DHT22;11181;51.002;4.356;2022-10-10T09:33:25;20.40;99.90
22035;DHT22;11181;51.002;4.356;2022-10-10T09:35:55;20.80;99.90
22035;DHT22;11181;51.002;4.356;2022-10-10T09:38:30;21.10;99.90
22035;DHT22;11181;51.002;4.356;2022-10-10T09:41:00;21.40;99.90
22035;DHT22;11181;51.002;4.356;2022-10-10T09:43:31;21.70;99.90
22035;DHT22;11181;51.002;4.356;2022-10-10T09:45:58;21.90;99.90
22035;DHT22;11181;51.002;4.356;2022-10-10T09:48:30;22.20;99.90
22035;DHT22;11181;51.002;4.356;2022-10-10T09:50:57;22.40;99.90
22035;DHT22;11181;51.002;4.356;2022-10-10T09:53:24;22.70;99.90
22035;DHT22;11181;51.002;4.356;2022-10-10T09:55:52;22.80;99.90
22035;DHT22;11181;51.002;4.356;2022-10-10T09:58:26;23.00;99.90
22035;DHT22;11181;51.002;4.356;2022-10-10T10:01:10;23.20;99.90
22035;DHT22;11181;51.002;4.356;2022-10-10T10:03:39;23.60;99.90
22035;DHT22;11181;51.002;4.356;2022-10-10T10:06:11;23.70;99.90
22035;DHT22;11181;51.002;4.356;2022-10-10T10:08:39;23.90;99.90
22035;DHT22;11181;51.002;4.356;2022-10-10T10:11:22;23.90;99.90
22035;DHT22;11181;51.002;4.356;2022-10-10T10:13:53;23.70;99.90
22035;DHT22;11181;51.002;4.356;2022-10-10T10:16:29;23.50;99.90
22035;DHT22;11181;51.002;4.356;2022-10-10T10:18:59;23.20;99.90
22035;DHT22;11181;51.002;4.356;2022-10-10T10:21:26;23.10;99.90
22035;DHT22;11181;51.002;4.356;2022-10-10T10:23:56;23.30;99.90
22035;DHT22;11181;51.002;4.356;2022-10-10T10:26:25;23.50;99.90
22035;DHT22;11181;51.002;4.356;2022-10-10T10:28:54;23.70;99.90
22035;DHT22;11181;51.002;4.356;2022-10-10T10:31:45;23.80;99.90
22035;DHT22;11181;51.002;4.356;2022-10-10T10:37:17;24.10;99.90
22035;DHT22;11181;51.002;4.356;2022-10-10T10:39:59;24.40;99.90
22035;DHT22;11181;51.002;4.356;2022-10-10T10:42:41;24.50;99.90
22035;DHT22;11181;51.002;4.356;2022-10-10T10:45:15;24.50;99.90
22035;DHT22;11181;51.002;4.356;2022-10-10T10:47:51;24.50;99.90
22035;DHT22;11181;51.002;4.356;2022-10-10T10:50:36;24.50;99.90
22035;DHT22;11181;51.002;4.356;2022-10-10T10:53:13;24.30;99.90
22035;DHT22;11181;51.002;4.356;2022-10-10T10:55:45;24.30;99.90
22035;DHT22;11181;51.002;4.356;2022-10-10T10:58:39;24.50;99.90
22035;DHT22;11181;51.002;4.356;2022-10-10T11:01:14;24.80;99.90
22035;DHT22;11181;51.002;4.356;2022-10-10T11:03:48;25.10;99.90
22035;DHT22;11181;51.002;4.356;2022-10-10T11:06:31;24.90;99.90
22035;DHT22;11181;51.002;4.356;2022-10-10T11:09:07;25.00;99.90
22035;DHT22;11181;51.002;4.356;2022-10-10T11:11:52;25.00;99.90
22035;DHT22;11181;51.002;4.356;2022-10-10T11:14:39;24.90;99.90
22035;DHT22;11181;51.002;4.356;2022-10-10T11:17:15;24.80;99.90
22035;DHT22;11181;51.002;4.356;2022-10-10T11:19:47;24.80;99.90
22035;DHT22;11181;51.002;4.356;2022-10-10T11:22:24;24.60;99.90
22035;DHT22;11181;51.002;4.356;2022-10-10T11:24:54;24.40;99.90
22035;DHT22;11181;51.002;4.356;2022-10-10T11:27:27;24.30;99.90
22035;DHT22;11181;51.002;4.356;2022-10-10T11:30:14;24.20;99.90
22035;DHT22;11181;51.002;4.356;2022-10-10T11:32:46;24.40;99.90
22035;DHT22;11181;51.002;4.356;2022-10-10T11:35:32;24.70;99.90
22035;DHT22;11181;51.002;4.356;2022-10-10T11:38:09;24.60;99.90
22035;DHT22;11181;51.002;4.356;2022-10-10T11:40:49;24.30;99.90
22035;DHT22;11181;51.002;4.356;2022-10-10T11:46:12;23.70;99.90
22035;DHT22;11181;51.002;4.356;2022-10-10T11:48:49;23.50;99.90
22035;DHT22;11181;51.002;4.356;2022-10-10T11:51:26;23.30;99.90
22035;DHT22;11181;51.002;4.356;2022-10-10T11:54:00;23.20;99.90
22035;DHT22;11181;51.002;4.356;2022-10-10T11:56:32;23.20;99.90
22035;DHT22;11181;51.002;4.356;2022-10-10T11:59:05;23.10;99.90
22035;DHT22;11181;51.002;4.356;2022-10-10T12:01:36;23.00;99.90
22035;DHT22;11181;51.002;4.356;2022-10-10T12:04:04;22.80;99.90
22035;DHT22;11181;51.002;4.356;2022-10-10T12:06:35;22.70;99.90
22035;DHT22;11181;51.002;4.356;2022-10-10T12:09:09;22.70;99.90
22035;DHT22;11181;51.002;4.356;2022-10-10T12:11:41;22.60;99.90
22035;DHT22;11181;51.002;4.356;2022-10-10T12:14:13;22.70;99.90
22035;DHT22;11181;51.002;4.356;2022-10-10T12:16:41;22.70;99.90
22035;DHT22;11181;51.002;4.356;2022-10-10T12:19:15;22.70;99.90
22035;DHT22;11181;51.002;4.356;2022-10-10T12:21:56;22.70;99.90
22035;DHT22;11181;51.002;4.356;2022-10-10T12:24:26;22.70;99.90
22035;DHT22;11181;51.002;4.356;2022-10-10T12:30:20;22.30;99.90
22035;DHT22;11181;51.002;4.356;2022-10-10T12:32:49;22.20;99.90
22035;DHT22;11181;51.002;4.356;2022-10-10T12:35:33;22.10;99.90
22035;DHT22;11181;51.002;4.356;2022-10-10T12:38:13;22.10;99.90
22035;DHT22;11181;51.002;4.356;2022-10-10T12:41:12;22.00;99.90
22035;DHT22;11181;51.002;4.356;2022-10-10T12:43:47;22.10;99.90
22035;DHT22;11181;51.002;4.356;2022-10-10T12:46:22;22.10;99.90
22035;DHT22;11181;51.002;4.356;2022-10-10T12:49:03;22.30;99.90
22035;DHT22;11181;51.002;4.356;2022-10-10T12:51:33;22.20;99.90
22035;DHT22;11181;51.002;4.356;2022-10-10T12:54:03;22.20;99.90
22035;DHT22;11181;51.002;4.356;2022-10-10T12:56:37;22.10;99.90
22035;DHT22;11181;51.002;4.356;2022-10-10T12:59:12;22.20;99.90
22035;DHT22;11181;51.002;4.356;2022-10-10T13:01:44;22.20;99.90
22035;DHT22;11181;51.002;4.356;2022-10-10T13:04:15;22.10;99.90
22035;DHT22;11181;51.002;4.356;2022-10-10T13:06:43;22.10;99.90
22035;DHT22;11181;51.002;4.356;2022-10-10T13:09:17;22.20;99.90
22035;DHT22;11181;51.002;4.356;2022-10-10T13:11:55;22.30;99.90
22035;DHT22;11181;51.002;4.356;2022-10-10T13:14:23;22.40;99.90
22035;DHT22;11181;51.002;4.356;2022-10-10T13:16:51;22.50;99.90
22035;DHT22;11181;51.002;4.356;2022-10-10T13:19:20;22.50;99.90
22035;DHT22;11181;51.002;4.356;2022-10-10T13:21:49;22.60;99.90
22035;DHT22;11181;51.002;4.356;2022-10-10T13:24:18;22.60;99.90
22035;DHT22;11181;51.002;4.356;2022-10-10T13:26:47;22.70;99.90
22035;DHT22;11181;51.002;4.356;2022-10-10T13:29:26;22.70;99.90
22035;DHT22;11181;51.002;4.356;2022-10-10T13:31:58;22.70;99.90
22035;DHT22;11181;51.002;4.356;2022-10-10T13:34:30;22.50;99.90
22035;DHT22;11181;51.002;4.356;2022-10-10T13:37:00;22.20;99.90
22035;DHT22;11181;51.002;4.356;2022-10-10T13:39:29;21.70;99.90
22035;DHT22;11181;51.002;4.356;2022-10-10T13:41:57;21.20;99.90
22035;DHT22;11181;51.002;4.356;2022-10-10T13:44:32;21.00;99.90
22035;DHT22;11181;51.002;4.356;2022-10-10T13:50:22;20.30;99.90
22035;DHT22;11181;51.002;4.356;2022-10-10T13:52:50;20.00;99.90
22035;DHT22;11181;51.002;4.356;2022-10-10T13:55:39;19.90;99.90
22035;DHT22;11181;51.002;4.356;2022-10-10T13:58:07;19.80;99.90
22035;DHT22;11181;51.002;4.356;2022-10-10T14:00:36;19.80;99.90
22035;DHT22;11181;51.002;4.356;2022-10-10T14:03:12;19.70;99.90
22035;DHT22;11181;51.002;4.356;2022-10-10T14:05:42;19.50;99.90
22035;DHT22;11181;51.002;4.356;2022-10-10T14:08:13;19.50;99.90
22035;DHT22;11181;51.002;4.356;2022-10-10T14:10:41;19.30;99.90
22035;DHT22;11181;51.002;4.356;2022-10-10T14:13:13;19.20;99.90
22035;DHT22;11181;51.002;4.356;2022-10-10T14:15:45;19.10;99.90
22035;DHT22;11181;51.002;4.356;2022-10-10T14:18:15;19.00;99.90
22035;DHT22;11181;51.002;4.356;2022-10-10T14:20:43;18.90;99.90
22035;DHT22;11181;51.002;4.356;2022-10-10T14:23:10;18.80;99.90
22035;DHT22;11181;51.002;4.356;2022-10-10T14:25:38;18.70;99.90
22035;DHT22;11181;51.002;4.356;2022-10-10T14:28:05;18.60;99.90
22035;DHT22;11181;51.002;4.356;2022-10-10T14:30:32;18.50;99.90
22035;DHT22;11181;51.002;4.356;2022-10-10T14:33:04;18.30;99.90
22035;DHT22;11181;51.002;4.356;2022-10-10T14:35:34;18.00;99.90
22035;DHT22;11181;51.002;4.356;2022-10-10T14:38:01;17.90;99.90
22035;DHT22;11181;51.002;4.356;2022-10-10T14:40:29;17.80;99.90
22035;DHT22;11181;51.002;4.356;2022-10-10T14:42:57;17.70;99.90
22035;DHT22;11181;51.002;4.356;2022-10-10T14:45:24;17.60;99.90
22035;DHT22;11181;51.002;4.356;2022-10-10T14:47:51;17.70;99.90
22035;DHT22;11181;51.002;4.356;2022-10-10T14:50:21;17.70;99.90
22035;DHT22;11181;51.002;4.356;2022-10-10T14:52:49;17.80;99.90
22035;DHT22;11181;51.002;4.356;2022-10-10T14:55:16;17.60;99.90
22035;DHT22;11181;51.002;4.356;2022-10-10T14:57:43;17.30;99.90
22035;DHT22;11181;51.002;4.356;2022-10-10T15:00:14;17.30;99.90
22035;DHT22;11181;51.002;4.356;2022-10-10T15:02:41;17.50;99.90
22035;DHT22;11181;51.002;4.356;2022-10-10T15:05:08;17.50;99.90
22035;DHT22;11181;51.002;4.356;2022-10-10T15:07:37;17.30;99.90
22035;DHT22;11181;51.002;4.356;2022-10-10T15:10:05;17.10;99.90
22035;DHT22;11181;51.002;4.356;2022-10-10T15:12:34;16.90;99.90
22035;DHT22;11181;51.002;4.356;2022-10-10T15:15:01;16.80;99.90
22035;DHT22;11181;51.002;4.356;2022-10-10T15:17:28;16.70;99.90
22035;DHT22;11181;51.002;4.356;2022-10-10T15:19:58;16.70;99.90
22035;DHT22;11181;51.002;4.356;2022-10-10T15:22:25;16.70;99.90
22035;DHT22;11181;51.002;4.356;2022-10-10T15:24:55;16.60;99.90
22035;DHT22;11181;51.002;4.356;2022-10-10T15:27:22;16.20;99.90
22035;DHT22;11181;51.002;4.356;2022-10-10T15:29:49;15.80;99.90
22035;DHT22;11181;51.002;4.356;2022-10-10T15:32:16;15.60;99.90
22035;DHT22;11181;51.002;4.356;2022-10-10T15:34:42;15.30;99.90
22035;DHT22;11181;51.002;4.356;2022-10-10T15:37:09;15.20;99.90
22035;DHT22;11181;51.002;4.356;2022-10-10T15:39:36;15.20;99.90
22035;DHT22;11181;51.002;4.356;2022-10-10T15:42:07;15.10;99.90
22035;DHT22;11181;51.002;4.356;2022-10-10T15:44:33;15.30;99.90
22035;DHT22;11181;51.002;4.356;2022-10-10T15:47:00;15.50;99.90
22035;DHT22;11181;51.002;4.356;2022-10-10T15:49:27;15.50;99.90
22035;DHT22;11181;51.002;4.356;2022-10-10T15:51:54;15.60;99.90
22035;DHT22;11181;51.002;4.356;2022-10-10T15:54:21;15.80;99.90
22035;DHT22;11181;51.002;4.356;2022-10-10T15:56:48;15.90;99.90
22035;DHT22;11181;51.002;4.356;2022-10-10T15:59:16;15.70;99.90
22035;DHT22;11181;51.002;4.356;2022-10-10T16:01:43;15.70;99.90